sensor_id;sensor_type;location;lat;lon;timestamp;P1;durP1;ratioP1;P2;durP2;ratioP2
6651;SDS011;3362;50.892;10.692;2022-07-23T00:01:24;3.13;;;2.65;;
6651;SDS011;3362;50.892;10.692;2022-07-23T00:03:52;2.70;;;2.17;;
6651;SDS011;3362;50.892;10.692;2022-07-23T00:06:19;3.28;;;2.45;;
6651;SDS011;3362;50.892;10.692;2022-07-23T00:08:47;3.28;;;2.70;;
6651;SDS011;3362;50.892;10.692;2022-07-23T00:11:13;3.80;;;2.47;;
6651;SDS011;3362;50.892;10.692;2022-07-23T00:13:39;5.40;;;2.60;;
6651;SDS011;3362;50.892;10.692;2022-07-23T00:16:06;4.93;;;3.00;;
6651;SDS011;3362;50.892;10.692;2022-07-23T00:18:32;4.18;;;2.50;;
6651;SDS011;3362;50.892;10.692;2022-07-23T00:20:58;4.70;;;2.53;;
6651;SDS011;3362;50.892;10.692;2022-07-23T00:23:24;5.05;;;2.72;;
6651;SDS011;3362;50.892;10.692;2022-07-23T00:25:53;4.80;;;2.60;;
6651;SDS011;3362;50.892;10.692;2022-07-23T00:28:19;3.20;;;2.90;;
6651;SDS011;3362;50.892;10.692;2022-07-23T00:30:45;2.90;;;2.58;;
6651;SDS011;3362;50.892;10.692;2022-07-23T00:33:11;3.53;;;2.55;;
6651;SDS011;3362;50.892;10.692;2022-07-23T00:35:38;6.15;;;2.78;;
6651;SDS011;3362;50.892;10.692;2022-07-23T00:38:05;3.08;;;2.70;;
6651;SDS011;3362;50.892;10.692;2022-07-23T00:40:32;3.78;;;2.90;;
6651;SDS011;3362;50.892;10.692;2022-07-23T00:43:00;3.85;;;3.20;;
6651;SDS011;3362;50.892;10.692;2022-07-23T00:45:26;3.25;;;2.72;;
6651;SDS011;3362;50.892;10.692;2022-07-23T00:47:53;2.70;;;2.38;;
6651;SDS011;3362;50.892;10.692;2022-07-23T00:50:19;5.28;;;2.65;;
6651;SDS011;3362;50.892;10.692;2022-07-23T00:52:45;3.03;;;2.60;;
6651;SDS011;3362;50.892;10.692;2022-07-23T00:55:12;3.30;;;2.85;;
6651;SDS011;3362;50.892;10.692;2022-07-23T00:57:38;6.55;;;3.03;;
6651;SDS011;3362;50.892;10.692;2022-07-23T01:00:07;4.97;;;2.67;;
6651;SDS011;3362;50.892;10.692;2022-07-23T01:02:34;5.32;;;2.80;;
6651;SDS011;3362;50.892;10.692;2022-07-23T01:05:00;6.47;;;3.10;;
6651;SDS011;3362;50.892;10.692;2022-07-23T01:07:26;4.35;;;3.17;;
6651;SDS011;3362;50.892;10.692;2022-07-23T01:09:53;4.90;;;2.65;;
6651;SDS011;3362;50.892;10.692;2022-07-23T01:12:20;3.67;;;2.83;;
6651;SDS011;3362;50.892;10.692;2022-07-23T01:14:53;6.13;;;2.88;;
6651;SDS011;3362;50.892;10.692;2022-07-23T01:17:20;3.28;;;2.42;;
6651;SDS011;3362;50.892;10.692;2022-07-23T01:19:46;3.53;;;2.78;;
6651;SDS011;3362;50.892;10.692;2022-07-23T01:22:13;5.10;;;3.17;;
6651;SDS011;3362;50.892;10.692;2022-07-23T01:24:41;6.15;;;3.35;;
6651;SDS011;3362;50.892;10.692;2022-07-23T01:27:07;6.80;;;3.40;;
6651;SDS011;3362;50.892;10.692;2022-07-23T01:29:34;7.30;;;4.40;;
6651;SDS011;3362;50.892;10.692;2022-07-23T01:32:00;6.47;;;3.42;;
6651;SDS011;3362;50.892;10.692;2022-07-23T01:34:26;5.55;;;3.33;;
6651;SDS011;3362;50.892;10.692;2022-07-23T01:36:52;4.82;;;3.42;;
6651;SDS011;3362;50.892;10.692;2022-07-23T01:39:18;4.13;;;3.50;;
6651;SDS011;3362;50.892;10.692;2022-07-23T01:41:46;4.00;;;3.30;;
6651;SDS011;3362;50.892;10.692;2022-07-23T01:44:12;6.45;;;3.67;;
6651;SDS011;3362;50.892;10.692;2022-07-23T01:46:39;5.75;;;3.28;;
6651;SDS011;3362;50.892;10.692;2022-07-23T01:49:05;7.70;;;3.65;;
6651;SDS011;3362;50.892;10.692;2022-07-23T01:51:31;4.90;;;3.65;;
6651;SDS011;3362;50.892;10.692;2022-07-23T01:53:58;5.60;;;3.65;;
6651;SDS011;3362;50.892;10.692;2022-07-23T01:56:24;4.50;;;3.53;;
6651;SDS011;3362;50.892;10.692;2022-07-23T01:58:51;6.25;;;4.18;;
6651;SDS011;3362;50.892;10.692;2022-07-23T02:01:18;6.28;;;4.43;;
6651;SDS011;3362;50.892;10.692;2022-07-23T02:03:44;7.55;;;3.78;;
6651;SDS011;3362;50.892;10.692;2022-07-23T02:06:10;6.05;;;3.85;;
6651;SDS011;3362;50.892;10.692;2022-07-23T02:08:36;6.80;;;3.83;;
6651;SDS011;3362;50.892;10.692;2022-07-23T02:11:02;4.70;;;3.50;;
6651;SDS011;3362;50.892;10.692;2022-07-23T02:13:29;5.47;;;3.83;;
6651;SDS011;3362;50.892;10.692;2022-07-23T02:15:56;5.20;;;4.25;;
6651;SDS011;3362;50.892;10.692;2022-07-23T02:18:22;4.28;;;3.20;;
6651;SDS011;3362;50.892;10.692;2022-07-23T02:20:49;7.38;;;3.75;;
6651;SDS011;3362;50.892;10.692;2022-07-23T02:23:15;7.70;;;4.35;;
6651;SDS011;3362;50.892;10.692;2022-07-23T02:25:41;6.57;;;4.82;;
6651;SDS011;3362;50.892;10.692;2022-07-23T02:28:07;15.57;;;4.93;;
6651;SDS011;3362;50.892;10.692;2022-07-23T02:30:33;14.18;;;5.93;;
6651;SDS011;3362;50.892;10.692;2022-07-23T02:33:01;19.05;;;9.05;;
6651;SDS011;3362;50.892;10.692;2022-07-23T02:35:27;13.38;;;6.53;;
6651;SDS011;3362;50.892;10.692;2022-07-23T02:37:53;14.68;;;6.72;;
6651;SDS011;3362;50.892;10.692;2022-07-23T02:40:20;11.98;;;6.80;;
6651;SDS011;3362;50.892;10.692;2022-07-23T02:42:46;10.32;;;7.22;;
6651;SDS011;3362;50.892;10.692;2022-07-23T02:45:12;10.50;;;7.07;;
6651;SDS011;3362;50.892;10.692;2022-07-23T02:47:38;10.27;;;6.93;;
6651;SDS011;3362;50.892;10.692;2022-07-23T02:50:06;13.82;;;7.35;;
6651;SDS011;3362;50.892;10.692;2022-07-23T02:52:33;13.60;;;7.72;;
6651;SDS011;3362;50.892;10.692;2022-07-23T02:54:59;12.25;;;7.78;;
6651;SDS011;3362;50.892;10.692;2022-07-23T02:57:25;11.60;;;7.30;;
6651;SDS011;3362;50.892;10.692;2022-07-23T02:59:52;10.88;;;8.13;;
6651;SDS011;3362;50.892;10.692;2022-07-23T03:02:18;12.63;;;7.68;;
6651;SDS011;3362;50.892;10.692;2022-07-23T03:04:44;11.60;;;8.27;;
6651;SDS011;3362;50.892;10.692;2022-07-23T03:07:12;10.45;;;7.75;;
6651;SDS011;3362;50.892;10.692;2022-07-23T03:09:38;10.52;;;7.45;;
6651;SDS011;3362;50.892;10.692;2022-07-23T03:12:04;14.77;;;7.30;;
6651;SDS011;3362;50.892;10.692;2022-07-23T03:14:31;14.32;;;7.80;;
6651;SDS011;3362;50.892;10.692;2022-07-23T03:16:57;12.45;;;7.57;;
6651;SDS011;3362;50.892;10.692;2022-07-23T03:19:24;11.98;;;7.47;;
6651;SDS011;3362;50.892;10.692;2022-07-23T03:21:50;13.13;;;8.63;;
6651;SDS011;3362;50.892;10.692;2022-07-23T03:24:18;15.35;;;9.07;;
6651;SDS011;3362;50.892;10.692;2022-07-23T03:26:44;11.52;;;8.95;;
6651;SDS011;3362;50.892;10.692;2022-07-23T03:29:11;17.17;;;9.05;;
6651;SDS011;3362;50.892;10.692;2022-07-23T03:31:37;11.63;;;8.57;;
6651;SDS011;3362;50.892;10.692;2022-07-23T03:34:03;12.45;;;8.98;;
6651;SDS011;3362;50.892;10.692;2022-07-23T03:36:29;20.63;;;10.23;;
6651;SDS011;3362;50.892;10.692;2022-07-23T03:38:56;12.98;;;8.88;;
6651;SDS011;3362;50.892;10.692;2022-07-23T03:41:23;12.65;;;8.43;;
6651;SDS011;3362;50.892;10.692;2022-07-23T03:43:49;10.82;;;8.07;;
6651;SDS011;3362;50.892;10.692;2022-07-23T03:46:16;17.55;;;9.50;;
6651;SDS011;3362;50.892;10.692;2022-07-23T03:48:42;11.32;;;8.13;;
6651;SDS011;3362;50.892;10.692;2022-07-23T03:51:08;12.18;;;8.63;;
6651;SDS011;3362;50.892;10.692;2022-07-23T03:53:34;17.77;;;9.27;;
6651;SDS011;3362;50.892;10.692;2022-07-23T03:56:00;14.30;;;9.93;;
6651;SDS011;3362;50.892;10.692;2022-07-23T03:58:28;15.02;;;9.02;;
6651;SDS011;3362;50.892;10.692;2022-07-23T04:00:54;11.15;;;8.90;;
6651;SDS011;3362;50.892;10.692;2022-07-23T04:03:20;15.63;;;9.43;;
6651;SDS011;3362;50.892;10.692;2022-07-23T04:05:46;12.10;;;9.05;;
6651;SDS011;3362;50.892;10.692;2022-07-23T04:08:13;16.00;;;9.63;;
6651;SDS011;3362;50.892;10.692;2022-07-23T04:10:39;14.48;;;8.80;;
6651;SDS011;3362;50.892;10.692;2022-07-23T04:13:05;13.45;;;10.30;;
6651;SDS011;3362;50.892;10.692;2022-07-23T04:15:33;14.95;;;10.65;;
6651;SDS011;3362;50.892;10.692;2022-07-23T04:17:59;11.00;;;9.27;;
6651;SDS011;3362;50.892;10.692;2022-07-23T04:20:25;13.13;;;9.77;;
6651;SDS011;3362;50.892;10.692;2022-07-23T04:22:51;16.40;;;9.73;;
6651;SDS011;3362;50.892;10.692;2022-07-23T04:25:17;18.77;;;9.77;;
6651;SDS011;3362;50.892;10.692;2022-07-23T04:27:44;16.85;;;10.48;;
6651;SDS011;3362;50.892;10.692;2022-07-23T04:30:10;19.02;;;10.85;;
6651;SDS011;3362;50.892;10.692;2022-07-23T04:32:38;15.20;;;9.73;;
6651;SDS011;3362;50.892;10.692;2022-07-23T04:35:04;14.88;;;10.93;;
6651;SDS011;3362;50.892;10.692;2022-07-23T04:37:30;17.10;;;10.27;;
6651;SDS011;3362;50.892;10.692;2022-07-23T04:39:56;13.50;;;10.63;;
6651;SDS011;3362;50.892;10.692;2022-07-23T04:42:23;14.85;;;10.35;;
6651;SDS011;3362;50.892;10.692;2022-07-23T04:44:49;15.07;;;10.32;;
6651;SDS011;3362;50.892;10.692;2022-07-23T04:47:15;17.20;;;9.77;;
6651;SDS011;3362;50.892;10.692;2022-07-23T04:49:43;12.77;;;10.15;;
6651;SDS011;3362;50.892;10.692;2022-07-23T04:52:09;16.75;;;10.20;;
6651;SDS011;3362;50.892;10.692;2022-07-23T04:54:35;13.00;;;9.82;;
6651;SDS011;3362;50.892;10.692;2022-07-23T04:57:01;14.73;;;10.77;;
6651;SDS011;3362;50.892;10.692;2022-07-23T04:59:27;12.18;;;9.05;;
6651;SDS011;3362;50.892;10.692;2022-07-23T05:01:54;13.57;;;9.07;;
6651;SDS011;3362;50.892;10.692;2022-07-23T05:04:20;15.25;;;10.52;;
6651;SDS011;3362;50.892;10.692;2022-07-23T05:06:47;15.95;;;9.63;;
6651;SDS011;3362;50.892;10.692;2022-07-23T05:09:13;19.67;;;10.35;;
6651;SDS011;3362;50.892;10.692;2022-07-23T05:11:40;12.38;;;9.43;;
6651;SDS011;3362;50.892;10.692;2022-07-23T05:14:06;12.15;;;9.40;;
6651;SDS011;3362;50.892;10.692;2022-07-23T05:16:32;12.65;;;9.95;;
6651;SDS011;3362;50.892;10.692;2022-07-23T05:18:58;14.77;;;9.27;;
6651;SDS011;3362;50.892;10.692;2022-07-23T05:21:24;18.77;;;9.65;;
6651;SDS011;3362;50.892;10.692;2022-07-23T05:23:52;12.38;;;9.75;;
6651;SDS011;3362;50.892;10.692;2022-07-23T05:26:18;12.20;;;9.18;;
6651;SDS011;3362;50.892;10.692;2022-07-23T05:28:44;14.23;;;9.27;;
6651;SDS011;3362;50.892;10.692;2022-07-23T05:31:11;12.68;;;9.32;;
6651;SDS011;3362;50.892;10.692;2022-07-23T05:33:37;12.13;;;10.40;;
6651;SDS011;3362;50.892;10.692;2022-07-23T05:36:03;13.90;;;9.05;;
6651;SDS011;3362;50.892;10.692;2022-07-23T05:38:31;11.00;;;8.80;;
6651;SDS011;3362;50.892;10.692;2022-07-23T05:40:59;17.83;;;9.65;;
6651;SDS011;3362;50.892;10.692;2022-07-23T05:43:25;11.68;;;8.40;;
6651;SDS011;3362;50.892;10.692;2022-07-23T05:45:51;12.45;;;8.82;;
6651;SDS011;3362;50.892;10.692;2022-07-23T05:48:18;13.13;;;9.68;;
6651;SDS011;3362;50.892;10.692;2022-07-23T05:50:45;13.95;;;9.02;;
6651;SDS011;3362;50.892;10.692;2022-07-23T05:53:11;13.73;;;9.07;;
6651;SDS011;3362;50.892;10.692;2022-07-23T05:55:37;12.60;;;8.68;;
6651;SDS011;3362;50.892;10.692;2022-07-23T05:58:05;12.13;;;8.32;;
6651;SDS011;3362;50.892;10.692;2022-07-23T06:00:31;14.95;;;9.57;;
6651;SDS011;3362;50.892;10.692;2022-07-23T06:02:57;11.85;;;8.70;;
6651;SDS011;3362;50.892;10.692;2022-07-23T06:05:24;15.07;;;9.30;;
6651;SDS011;3362;50.892;10.692;2022-07-23T06:07:50;12.55;;;9.13;;
6651;SDS011;3362;50.892;10.692;2022-07-23T06:10:18;16.00;;;9.57;;
6651;SDS011;3362;50.892;10.692;2022-07-23T06:12:44;12.63;;;9.02;;
6651;SDS011;3362;50.892;10.692;2022-07-23T06:15:11;14.23;;;10.27;;
6651;SDS011;3362;50.892;10.692;2022-07-23T06:17:38;14.65;;;8.63;;
6651;SDS011;3362;50.892;10.692;2022-07-23T06:20:05;12.68;;;8.70;;
6651;SDS011;3362;50.892;10.692;2022-07-23T06:22:31;17.90;;;9.38;;
6651;SDS011;3362;50.892;10.692;2022-07-23T06:24:58;11.20;;;9.00;;
6651;SDS011;3362;50.892;10.692;2022-07-23T06:27:24;13.40;;;9.15;;
6651;SDS011;3362;50.892;10.692;2022-07-23T06:29:50;13.23;;;9.27;;
6651;SDS011;3362;50.892;10.692;2022-07-23T06:32:17;14.48;;;8.73;;
6651;SDS011;3362;50.892;10.692;2022-07-23T06:34:44;14.57;;;9.20;;
6651;SDS011;3362;50.892;10.692;2022-07-23T06:37:10;14.88;;;9.25;;
6651;SDS011;3362;50.892;10.692;2022-07-23T06:39:36;15.32;;;10.25;;
6651;SDS011;3362;50.892;10.692;2022-07-23T06:42:02;10.75;;;8.90;;
6651;SDS011;3362;50.892;10.692;2022-07-23T06:44:29;12.50;;;8.15;;
6651;SDS011;3362;50.892;10.692;2022-07-23T06:46:55;12.15;;;9.85;;
6651;SDS011;3362;50.892;10.692;2022-07-23T06:49:22;11.35;;;9.05;;
6651;SDS011;3362;50.892;10.692;2022-07-23T06:51:49;15.85;;;9.95;;
6651;SDS011;3362;50.892;10.692;2022-07-23T06:54:16;14.23;;;9.68;;
6651;SDS011;3362;50.892;10.692;2022-07-23T06:56:42;15.82;;;10.32;;
6651;SDS011;3362;50.892;10.692;2022-07-23T06:59:08;13.98;;;9.32;;
6651;SDS011;3362;50.892;10.692;2022-07-23T07:01:35;16.10;;;9.45;;
6651;SDS011;3362;50.892;10.692;2022-07-23T07:04:01;15.43;;;10.23;;
6651;SDS011;3362;50.892;10.692;2022-07-23T07:06:28;12.60;;;8.98;;
6651;SDS011;3362;50.892;10.692;2022-07-23T07:08:55;13.57;;;9.38;;
6651;SDS011;3362;50.892;10.692;2022-07-23T07:11:21;12.75;;;9.88;;
6651;SDS011;3362;50.892;10.692;2022-07-23T07:13:48;13.20;;;9.82;;
6651;SDS011;3362;50.892;10.692;2022-07-23T07:16:14;11.88;;;9.00;;
6651;SDS011;3362;50.892;10.692;2022-07-23T07:18:41;11.73;;;8.68;;
6651;SDS011;3362;50.892;10.692;2022-07-23T07:21:07;13.02;;;8.90;;
6651;SDS011;3362;50.892;10.692;2022-07-23T07:23:34;15.38;;;8.88;;
6651;SDS011;3362;50.892;10.692;2022-07-23T07:26:01;12.15;;;9.15;;
6651;SDS011;3362;50.892;10.692;2022-07-23T07:28:27;12.35;;;10.20;;
6651;SDS011;3362;50.892;10.692;2022-07-23T07:30:53;12.23;;;9.40;;
6651;SDS011;3362;50.892;10.692;2022-07-23T07:33:19;12.70;;;9.20;;
6651;SDS011;3362;50.892;10.692;2022-07-23T07:35:46;15.82;;;9.27;;
6651;SDS011;3362;50.892;10.692;2022-07-23T07:38:13;14.27;;;10.77;;
6651;SDS011;3362;50.892;10.692;2022-07-23T07:40:40;13.77;;;9.75;;
6651;SDS011;3362;50.892;10.692;2022-07-23T07:43:06;14.50;;;10.65;;
6651;SDS011;3362;50.892;10.692;2022-07-23T07:45:32;16.67;;;11.27;;
6651;SDS011;3362;50.892;10.692;2022-07-23T07:47:59;15.63;;;9.90;;
6651;SDS011;3362;50.892;10.692;2022-07-23T07:50:25;15.57;;;11.20;;
6651;SDS011;3362;50.892;10.692;2022-07-23T07:52:51;15.48;;;11.25;;
6651;SDS011;3362;50.892;10.692;2022-07-23T07:55:17;14.85;;;11.32;;
6651;SDS011;3362;50.892;10.692;2022-07-23T07:57:45;13.63;;;10.48;;
6651;SDS011;3362;50.892;10.692;2022-07-23T08:00:11;16.25;;;11.48;;
6651;SDS011;3362;50.892;10.692;2022-07-23T08:02:41;15.32;;;12.23;;
6651;SDS011;3362;50.892;10.692;2022-07-23T08:05:08;14.82;;;10.77;;
6651;SDS011;3362;50.892;10.692;2022-07-23T08:07:34;17.55;;;11.18;;
6651;SDS011;3362;50.892;10.692;2022-07-23T08:10:00;14.02;;;10.45;;
6651;SDS011;3362;50.892;10.692;2022-07-23T08:12:26;17.15;;;11.50;;
6651;SDS011;3362;50.892;10.692;2022-07-23T08:14:54;14.38;;;10.43;;
6651;SDS011;3362;50.892;10.692;2022-07-23T08:17:20;15.50;;;11.35;;
6651;SDS011;3362;50.892;10.692;2022-07-23T08:19:46;15.80;;;12.05;;
6651;SDS011;3362;50.892;10.692;2022-07-23T08:22:13;16.48;;;11.07;;
6651;SDS011;3362;50.892;10.692;2022-07-23T08:24:39;13.02;;;10.65;;
6651;SDS011;3362;50.892;10.692;2022-07-23T08:27:05;14.10;;;11.20;;
6651;SDS011;3362;50.892;10.692;2022-07-23T08:29:31;12.10;;;10.30;;
6651;SDS011;3362;50.892;10.692;2022-07-23T08:31:59;17.33;;;11.77;;
6651;SDS011;3362;50.892;10.692;2022-07-23T08:34:25;15.63;;;11.45;;
6651;SDS011;3362;50.892;10.692;2022-07-23T08:36:51;15.00;;;10.57;;
6651;SDS011;3362;50.892;10.692;2022-07-23T08:39:17;14.07;;;10.65;;
6651;SDS011;3362;50.892;10.692;2022-07-23T08:41:44;15.65;;;11.32;;
6651;SDS011;3362;50.892;10.692;2022-07-23T08:44:10;16.58;;;12.10;;
6651;SDS011;3362;50.892;10.692;2022-07-23T08:46:36;20.13;;;12.05;;
6651;SDS011;3362;50.892;10.692;2022-07-23T08:49:05;14.65;;;11.05;;
6651;SDS011;3362;50.892;10.692;2022-07-23T08:51:32;13.25;;;11.30;;
6651;SDS011;3362;50.892;10.692;2022-07-23T08:53:58;15.98;;;12.27;;
6651;SDS011;3362;50.892;10.692;2022-07-23T08:56:25;16.83;;;10.68;;
6651;SDS011;3362;50.892;10.692;2022-07-23T08:58:53;14.93;;;11.07;;
6651;SDS011;3362;50.892;10.692;2022-07-23T09:01:19;17.25;;;11.20;;
6651;SDS011;3362;50.892;10.692;2022-07-23T09:03:45;15.30;;;11.35;;
6651;SDS011;3362;50.892;10.692;2022-07-23T09:06:13;16.48;;;11.57;;
6651;SDS011;3362;50.892;10.692;2022-07-23T09:08:39;17.15;;;12.20;;
6651;SDS011;3362;50.892;10.692;2022-07-23T09:11:06;16.67;;;11.85;;
6651;SDS011;3362;50.892;10.692;2022-07-23T09:13:34;14.07;;;10.20;;
6651;SDS011;3362;50.892;10.692;2022-07-23T09:16:02;13.35;;;10.93;;
6651;SDS011;3362;50.892;10.692;2022-07-23T09:18:33;14.60;;;10.63;;
6651;SDS011;3362;50.892;10.692;2022-07-23T09:21:09;15.25;;;9.73;;
6651;SDS011;3362;50.892;10.692;2022-07-23T09:23:37;12.55;;;9.50;;
6651;SDS011;3362;50.892;10.692;2022-07-23T09:26:07;13.45;;;11.10;;
6651;SDS011;3362;50.892;10.692;2022-07-23T09:28:47;11.82;;;10.02;;
6651;SDS011;3362;50.892;10.692;2022-07-23T09:31:13;14.32;;;10.95;;
6651;SDS011;3362;50.892;10.692;2022-07-23T09:33:39;12.60;;;10.13;;
6651;SDS011;3362;50.892;10.692;2022-07-23T09:36:06;15.55;;;10.93;;
6651;SDS011;3362;50.892;10.692;2022-07-23T09:38:34;14.13;;;10.48;;
6651;SDS011;3362;50.892;10.692;2022-07-23T09:41:08;15.35;;;11.10;;
6651;SDS011;3362;50.892;10.692;2022-07-23T09:43:35;13.35;;;10.07;;
6651;SDS011;3362;50.892;10.692;2022-07-23T09:46:17;13.90;;;9.68;;
6651;SDS011;3362;50.892;10.692;2022-07-23T09:48:43;13.05;;;9.88;;
6651;SDS011;3362;50.892;10.692;2022-07-23T09:51:10;14.20;;;10.48;;
6651;SDS011;3362;50.892;10.692;2022-07-23T09:53:36;13.68;;;10.02;;
6651;SDS011;3362;50.892;10.692;2022-07-23T09:56:02;12.43;;;9.98;;
6651;SDS011;3362;50.892;10.692;2022-07-23T09:58:30;12.80;;;9.77;;
6651;SDS011;3362;50.892;10.692;2022-07-23T10:00:57;14.45;;;10.32;;
6651;SDS011;3362;50.892;10.692;2022-07-23T10:03:23;14.60;;;10.27;;
6651;SDS011;3362;50.892;10.692;2022-07-23T10:05:50;10.63;;;9.07;;
6651;SDS011;3362;50.892;10.692;2022-07-23T10:08:16;12.50;;;9.90;;
6651;SDS011;3362;50.892;10.692;2022-07-23T10:10:44;11.93;;;9.43;;
6651;SDS011;3362;50.892;10.692;2022-07-23T10:13:11;16.60;;;9.57;;
6651;SDS011;3362;50.892;10.692;2022-07-23T10:15:57;12.20;;;8.75;;
6651;SDS011;3362;50.892;10.692;2022-07-23T10:18:23;13.02;;;8.38;;
6651;SDS011;3362;50.892;10.692;2022-07-23T10:20:49;9.68;;;8.45;;
6651;SDS011;3362;50.892;10.692;2022-07-23T10:23:17;12.57;;;8.60;;
6651;SDS011;3362;50.892;10.692;2022-07-23T10:25:46;10.95;;;8.32;;
6651;SDS011;3362;50.892;10.692;2022-07-23T10:28:18;10.23;;;8.18;;
6651;SDS011;3362;50.892;10.692;2022-07-23T10:30:50;10.65;;;8.85;;
6651;SDS011;3362;50.892;10.692;2022-07-23T10:33:23;11.82;;;9.40;;
6651;SDS011;3362;50.892;10.692;2022-07-23T10:35:54;12.98;;;9.02;;
6651;SDS011;3362;50.892;10.692;2022-07-23T10:38:22;12.55;;;9.18;;
6651;SDS011;3362;50.892;10.692;2022-07-23T10:40:54;13.80;;;8.93;;
6651;SDS011;3362;50.892;10.692;2022-07-23T10:43:21;11.48;;;8.13;;
6651;SDS011;3362;50.892;10.692;2022-07-23T10:45:48;15.80;;;10.27;;
6651;SDS011;3362;50.892;10.692;2022-07-23T10:48:14;15.32;;;9.18;;
6651;SDS011;3362;50.892;10.692;2022-07-23T10:50:42;13.73;;;9.40;;
6651;SDS011;3362;50.892;10.692;2022-07-23T10:53:13;14.75;;;9.30;;
6651;SDS011;3362;50.892;10.692;2022-07-23T10:55:42;10.95;;;8.73;;
6651;SDS011;3362;50.892;10.692;2022-07-23T10:58:08;10.82;;;8.25;;
6651;SDS011;3362;50.892;10.692;2022-07-23T11:00:35;9.82;;;8.82;;
6651;SDS011;3362;50.892;10.692;2022-07-23T11:03:03;12.10;;;9.57;;
6651;SDS011;3362;50.892;10.692;2022-07-23T11:05:39;11.70;;;9.30;;
6651;SDS011;3362;50.892;10.692;2022-07-23T11:08:14;12.95;;;9.32;;
6651;SDS011;3362;50.892;10.692;2022-07-23T11:10:42;11.15;;;8.63;;
6651;SDS011;3362;50.892;10.692;2022-07-23T11:16:03;11.63;;;8.52;;
6651;SDS011;3362;50.892;10.692;2022-07-23T11:24:03;10.60;;;7.93;;
6651;SDS011;3362;50.892;10.692;2022-07-23T11:26:42;8.85;;;7.95;;
6651;SDS011;3362;50.892;10.692;2022-07-23T11:31:52;9.10;;;7.32;;
6651;SDS011;3362;50.892;10.692;2022-07-23T11:34:27;9.27;;;7.05;;
6651;SDS011;3362;50.892;10.692;2022-07-23T11:36:54;7.85;;;7.05;;
6651;SDS011;3362;50.892;10.692;2022-07-23T11:39:21;10.25;;;7.43;;
6651;SDS011;3362;50.892;10.692;2022-07-23T11:41:50;8.35;;;7.45;;
6651;SDS011;3362;50.892;10.692;2022-07-23T11:44:23;12.00;;;7.80;;
6651;SDS011;3362;50.892;10.692;2022-07-23T11:46:54;9.32;;;7.65;;
6651;SDS011;3362;50.892;10.692;2022-07-23T11:49:20;10.90;;;7.10;;
6651;SDS011;3362;50.892;10.692;2022-07-23T11:51:46;8.93;;;6.78;;
6651;SDS011;3362;50.892;10.692;2022-07-23T11:54:12;9.98;;;5.65;;
6651;SDS011;3362;50.892;10.692;2022-07-23T11:59:21;8.30;;;6.05;;
6651;SDS011;3362;50.892;10.692;2022-07-23T12:01:55;7.03;;;6.15;;
6651;SDS011;3362;50.892;10.692;2022-07-23T12:04:21;8.10;;;5.45;;
6651;SDS011;3362;50.892;10.692;2022-07-23T12:06:48;7.20;;;5.80;;
6651;SDS011;3362;50.892;10.692;2022-07-23T12:09:14;6.28;;;5.45;;
6651;SDS011;3362;50.892;10.692;2022-07-23T12:14:23;7.88;;;5.40;;
6651;SDS011;3362;50.892;10.692;2022-07-23T12:19:30;5.45;;;4.93;;
6651;SDS011;3362;50.892;10.692;2022-07-23T12:21:56;8.50;;;6.00;;
6651;SDS011;3362;50.892;10.692;2022-07-23T12:24:22;7.10;;;5.15;;
6651;SDS011;3362;50.892;10.692;2022-07-23T12:29:34;4.35;;;3.70;;
6651;SDS011;3362;50.892;10.692;2022-07-23T12:32:01;4.55;;;3.45;;
6651;SDS011;3362;50.892;10.692;2022-07-23T12:34:27;6.28;;;4.75;;
6651;SDS011;3362;50.892;10.692;2022-07-23T12:36:53;5.70;;;3.60;;
6651;SDS011;3362;50.892;10.692;2022-07-23T12:39:29;4.57;;;4.03;;
6651;SDS011;3362;50.892;10.692;2022-07-23T12:41:55;4.57;;;4.18;;
6651;SDS011;3362;50.892;10.692;2022-07-23T12:44:21;5.10;;;4.25;;
6651;SDS011;3362;50.892;10.692;2022-07-23T12:46:51;5.03;;;4.28;;
6651;SDS011;3362;50.892;10.692;2022-07-23T12:49:25;4.43;;;3.80;;
6651;SDS011;3362;50.892;10.692;2022-07-23T12:51:51;3.97;;;3.00;;
6651;SDS011;3362;50.892;10.692;2022-07-23T12:54:17;4.63;;;4.05;;
6651;SDS011;3362;50.892;10.692;2022-07-23T12:56:44;5.28;;;3.40;;
6651;SDS011;3362;50.892;10.692;2022-07-23T12:59:11;4.00;;;2.70;;
6651;SDS011;3362;50.892;10.692;2022-07-23T13:01:41;3.92;;;2.85;;
6651;SDS011;3362;50.892;10.692;2022-07-23T13:04:09;4.70;;;3.03;;
6651;SDS011;3362;50.892;10.692;2022-07-23T13:06:36;5.00;;;3.42;;
6651;SDS011;3362;50.892;10.692;2022-07-23T13:09:04;4.22;;;3.00;;
6651;SDS011;3362;50.892;10.692;2022-07-23T13:11:31;4.53;;;3.20;;
6651;SDS011;3362;50.892;10.692;2022-07-23T13:13:58;6.70;;;3.03;;
6651;SDS011;3362;50.892;10.692;2022-07-23T13:16:25;4.88;;;2.95;;
6651;SDS011;3362;50.892;10.692;2022-07-23T13:18:51;4.28;;;3.50;;
6651;SDS011;3362;50.892;10.692;2022-07-23T13:21:19;2.95;;;2.38;;
6651;SDS011;3362;50.892;10.692;2022-07-23T13:23:45;4.03;;;3.05;;
6651;SDS011;3362;50.892;10.692;2022-07-23T13:26:11;3.45;;;3.15;;
6651;SDS011;3362;50.892;10.692;2022-07-23T13:28:37;3.70;;;2.90;;
6651;SDS011;3362;50.892;10.692;2022-07-23T13:31:04;4.65;;;2.88;;
6651;SDS011;3362;50.892;10.692;2022-07-23T13:33:30;3.88;;;2.65;;
6651;SDS011;3362;50.892;10.692;2022-07-23T13:35:56;5.18;;;2.53;;
6651;SDS011;3362;50.892;10.692;2022-07-23T13:38:24;3.03;;;2.53;;
6651;SDS011;3362;50.892;10.692;2022-07-23T13:40:50;3.35;;;2.72;;
6651;SDS011;3362;50.892;10.692;2022-07-23T13:43:17;3.00;;;2.70;;
6651;SDS011;3362;50.892;10.692;2022-07-23T13:45:44;3.25;;;2.65;;
6651;SDS011;3362;50.892;10.692;2022-07-23T13:48:11;2.60;;;2.40;;
6651;SDS011;3362;50.892;10.692;2022-07-23T13:50:38;2.50;;;2.30;;
6651;SDS011;3362;50.892;10.692;2022-07-23T13:53:05;4.70;;;2.70;;
6651;SDS011;3362;50.892;10.692;2022-07-23T13:55:33;6.97;;;2.35;;
6651;SDS011;3362;50.892;10.692;2022-07-23T13:57:59;2.97;;;2.70;;
6651;SDS011;3362;50.892;10.692;2022-07-23T14:00:26;3.13;;;2.47;;
6651;SDS011;3362;50.892;10.692;2022-07-23T14:02:52;3.03;;;2.42;;
6651;SDS011;3362;50.892;10.692;2022-07-23T14:05:18;2.95;;;2.70;;
6651;SDS011;3362;50.892;10.692;2022-07-23T14:07:45;4.10;;;3.38;;
6651;SDS011;3362;50.892;10.692;2022-07-23T14:10:12;2.50;;;2.30;;
6651;SDS011;3362;50.892;10.692;2022-07-23T14:12:39;4.85;;;2.45;;
6651;SDS011;3362;50.892;10.692;2022-07-23T14:15:06;3.28;;;2.38;;
6651;SDS011;3362;50.892;10.692;2022-07-23T14:17:33;3.40;;;2.92;;
6651;SDS011;3362;50.892;10.692;2022-07-23T14:19:59;2.75;;;2.47;;
6651;SDS011;3362;50.892;10.692;2022-07-23T14:22:25;3.42;;;2.28;;
6651;SDS011;3362;50.892;10.692;2022-07-23T14:24:52;2.80;;;2.60;;
6651;SDS011;3362;50.892;10.692;2022-07-23T14:27:18;4.70;;;2.28;;
6651;SDS011;3362;50.892;10.692;2022-07-23T14:29:45;4.28;;;2.50;;
6651;SDS011;3362;50.892;10.692;2022-07-23T14:32:12;4.07;;;2.53;;
6651;SDS011;3362;50.892;10.692;2022-07-23T14:34:38;3.97;;;2.63;;
6651;SDS011;3362;50.892;10.692;2022-07-23T14:37:04;2.60;;;2.40;;
6651;SDS011;3362;50.892;10.692;2022-07-23T14:39:30;3.28;;;2.30;;
6651;SDS011;3362;50.892;10.692;2022-07-23T14:41:57;4.20;;;2.53;;
6651;SDS011;3362;50.892;10.692;2022-07-23T14:44:23;3.80;;;2.15;;
6651;SDS011;3362;50.892;10.692;2022-07-23T14:46:50;3.70;;;2.53;;
6651;SDS011;3362;50.892;10.692;2022-07-23T14:49:17;2.20;;;1.98;;
6651;SDS011;3362;50.892;10.692;2022-07-23T14:51:43;4.95;;;2.30;;
6651;SDS011;3362;50.892;10.692;2022-07-23T14:54:09;5.45;;;2.80;;
6651;SDS011;3362;50.892;10.692;2022-07-23T14:56:36;3.10;;;2.60;;
6651;SDS011;3362;50.892;10.692;2022-07-23T14:59:02;2.40;;;2.20;;
6651;SDS011;3362;50.892;10.692;2022-07-23T15:01:28;2.97;;;2.33;;
6651;SDS011;3362;50.892;10.692;2022-07-23T15:03:56;2.90;;;2.45;;
6651;SDS011;3362;50.892;10.692;2022-07-23T15:06:22;3.55;;;2.40;;
6651;SDS011;3362;50.892;10.692;2022-07-23T15:08:48;2.10;;;1.90;;
6651;SDS011;3362;50.892;10.692;2022-07-23T15:11:14;3.83;;;2.63;;